METAR Data
IDs: Format: Raw Decoded Include TAF

Data at: 2354 UTC 18 Oct 2019

METAR for:VTUK (Khon Kaen Arpt, --, TH)
Text:VTUK 182300Z 36004KT 7000 NSC 22/21 Q1015 NOSIG
Temperature: 22.0°C ( 72°F)
Dewpoint: 21.0°C ( 70°F) [RH = 94%]
Pressure (altimeter):29.97 inches Hg (1015.0 mb)
Winds:from the N (360 degrees) at 5 MPH (4 knots; 2.1 m/s)
Visibility: 4 sm ( 7 km)
Ceiling:at least 12,000 feet AGL
Clouds:sky clear below 12,000 feet AGL
Text:VTUK 182200Z 01002KT 8000 NSC 22/20 Q1014 NOSIG
Temperature: 22.0°C ( 72°F)
Dewpoint: 20.0°C ( 68°F) [RH = 88%]
Pressure (altimeter):29.94 inches Hg (1014.0 mb)
Winds:from the N (10 degrees) at 2 MPH (2 knots; 1.0 m/s)
Visibility: 5 sm ( 8 km)
Ceiling:at least 12,000 feet AGL
Clouds:sky clear below 12,000 feet AGL
Text:VTUK 182100Z 01002KT 8000 NSC 22/21 Q1014 NOSIG
Temperature: 22.0°C ( 72°F)
Dewpoint: 21.0°C ( 70°F) [RH = 94%]
Pressure (altimeter):29.94 inches Hg (1014.0 mb)
Winds:from the N (10 degrees) at 2 MPH (2 knots; 1.0 m/s)
Visibility: 5 sm ( 8 km)
Ceiling:at least 12,000 feet AGL
Clouds:sky clear below 12,000 feet AGL

METAR for:VTUD (Udon Thani Arpt, --, TH)
Text:VTUD 182300Z 27001KT CAVOK 23/21 Q1015 NOSIG
Temperature: 23.0°C ( 73°F)
Dewpoint: 21.0°C ( 70°F) [RH = 89%]
Pressure (altimeter):29.97 inches Hg (1015.0 mb)
Winds:from the W (270 degrees) at 1 MPH (1 knots; 0.5 m/s)
Visibility:6 or more sm (10+ km)
Ceiling:ceiling and visibility are OK
Clouds:unknown
Text:VTUD 182200Z VRB02KT CAVOK 23/20 Q1015 NOSIG
Temperature: 23.0°C ( 73°F)
Dewpoint: 20.0°C ( 68°F) [RH = 83%]
Pressure (altimeter):29.97 inches Hg (1015.0 mb)
Winds:variable direction winds at 2 MPH (2 knots; 1.0 m/s)
Visibility:6 or more sm (10+ km)
Ceiling:ceiling and visibility are OK
Clouds:unknown

METAR for:VTUL (Loei Arpt, --, TH)
Text:VTUL 182300Z VRB02KT 9999 BKN025 BKN060 22/22 Q1016 NOSIG
Temperature: 22.0°C ( 72°F)
Dewpoint: 22.0°C ( 72°F) [RH = 100%]
Pressure (altimeter):30.00 inches Hg (1016.0 mb)
Winds:variable direction winds at 2 MPH (2 knots; 1.0 m/s)
Visibility:6 or more sm (10+ km)
Ceiling:2500 feet AGL
Clouds: broken clouds at 2500 feet AGL, broken clouds at 6000 feet AGL

METAR for:VTUI (Sakon Nakhon Arpt, --, TH)
Text:VTUI 182300Z VRB02KT 9000 FEW030 23/21 Q1015 NOSIG
Temperature: 23.0°C ( 73°F)
Dewpoint: 21.0°C ( 70°F) [RH = 89%]
Pressure (altimeter):29.97 inches Hg (1015.0 mb)
Winds:variable direction winds at 2 MPH (2 knots; 1.0 m/s)
Visibility: 6 sm ( 9 km)
Ceiling:at least 12,000 feet AGL
Clouds: few clouds at 3000 feet AGL
Text:VTUI 182200Z VRB02KT 9000 FEW030 22/19 Q1015 NOSIG
Temperature: 22.0°C ( 72°F)
Dewpoint: 19.0°C ( 66°F) [RH = 83%]
Pressure (altimeter):29.97 inches Hg (1015.0 mb)
Winds:variable direction winds at 2 MPH (2 knots; 1.0 m/s)
Visibility: 6 sm ( 9 km)
Ceiling:at least 12,000 feet AGL
Clouds: few clouds at 3000 feet AGL

METAR for:VTUW (Nakhon Phanom Arpt, --, TH)
Text:No data found

METAR for:VTBS (Bangkok/Suvarnabhumi, --, TH)
Text:VTBS 182330Z 07006KT 9999 FEW020 SCT090 28/23 Q1012 NOSIG
Temperature: 28.0°C ( 82°F)
Dewpoint: 23.0°C ( 73°F) [RH = 74%]
Pressure (altimeter):29.88 inches Hg (1012.0 mb)
Winds:from the ENE (70 degrees) at 7 MPH (6 knots; 3.1 m/s)
Visibility:6 or more sm (10+ km)
Ceiling:at least 12,000 feet AGL
Clouds: few clouds at 2000 feet AGL, scattered clouds at 9000 feet AGL
Text:VTBS 182300Z 07006KT 9999 FEW020 28/23 Q1011 NOSIG
Temperature: 28.0°C ( 82°F)
Dewpoint: 23.0°C ( 73°F) [RH = 74%]
Pressure (altimeter):29.85 inches Hg (1011.0 mb)
Winds:from the ENE (70 degrees) at 7 MPH (6 knots; 3.1 m/s)
Visibility:6 or more sm (10+ km)
Ceiling:at least 12,000 feet AGL
Clouds: few clouds at 2000 feet AGL
Text:VTBS 182230Z 07005KT 030V100 9999 FEW020 28/23 Q1011 NOSIG
Temperature: 28.0°C ( 82°F)
Dewpoint: 23.0°C ( 73°F) [RH = 74%]
Pressure (altimeter):29.85 inches Hg (1011.0 mb)
Winds:from the ENE (70 degrees) at 6 MPH (5 knots; 2.6 m/s)
Visibility:6 or more sm (10+ km)
Ceiling:at least 12,000 feet AGL
Clouds: few clouds at 2000 feet AGL
Text:VTBS 182200Z 05008KT 9999 FEW020 SCT100 28/23 Q1011 NOSIG
Temperature: 28.0°C ( 82°F)
Dewpoint: 23.0°C ( 73°F) [RH = 74%]
Pressure (altimeter):29.85 inches Hg (1011.0 mb)
Winds:from the NE (50 degrees) at 9 MPH (8 knots; 4.1 m/s)
Visibility:6 or more sm (10+ km)
Ceiling:at least 12,000 feet AGL
Clouds: few clouds at 2000 feet AGL, scattered clouds at 10000 feet AGL
Text:VTBS 182130Z 06005KT 9999 FEW020 SCT100 28/23 Q1011 NOSIG
Temperature: 28.0°C ( 82°F)
Dewpoint: 23.0°C ( 73°F) [RH = 74%]
Pressure (altimeter):29.85 inches Hg (1011.0 mb)
Winds:from the ENE (60 degrees) at 6 MPH (5 knots; 2.6 m/s)
Visibility:6 or more sm (10+ km)
Ceiling:at least 12,000 feet AGL
Clouds: few clouds at 2000 feet AGL, scattered clouds at 10000 feet AGL
Text:VTBS 182100Z 08003KT 9999 FEW020 BKN100 28/23 Q1011 NOSIG
Temperature: 28.0°C ( 82°F)
Dewpoint: 23.0°C ( 73°F) [RH = 74%]
Pressure (altimeter):29.85 inches Hg (1011.0 mb)
Winds:from the E (80 degrees) at 3 MPH (3 knots; 1.5 m/s)
Visibility:6 or more sm (10+ km)
Ceiling:10000 feet AGL
Clouds: few clouds at 2000 feet AGL, broken clouds at 10000 feet AGL

METAR for:VTBD (Bangkok Intl, --, TH)
Text:VTBD 182330Z 30004KT 250V350 9999 FEW030 27/23 Q1012 NOSIG
Temperature: 27.0°C ( 81°F)
Dewpoint: 23.0°C ( 73°F) [RH = 79%]
Pressure (altimeter):29.88 inches Hg (1012.0 mb)
Winds:from the WNW (300 degrees) at 5 MPH (4 knots; 2.1 m/s)
Visibility:6 or more sm (10+ km)
Ceiling:at least 12,000 feet AGL
Clouds: few clouds at 3000 feet AGL
Text:VTBD 182300Z 33006KT 9999 FEW030 27/24 Q1012 NOSIG
Temperature: 27.0°C ( 81°F)
Dewpoint: 24.0°C ( 75°F) [RH = 84%]
Pressure (altimeter):29.88 inches Hg (1012.0 mb)
Winds:from the NNW (330 degrees) at 7 MPH (6 knots; 3.1 m/s)
Visibility:6 or more sm (10+ km)
Ceiling:at least 12,000 feet AGL
Clouds: few clouds at 3000 feet AGL
Text:VTBD 182230Z 32003KT 280V340 9999 FEW030 28/24 Q1011 NOSIG
Temperature: 28.0°C ( 82°F)
Dewpoint: 24.0°C ( 75°F) [RH = 79%]
Pressure (altimeter):29.85 inches Hg (1011.0 mb)
Winds:from the NW (320 degrees) at 3 MPH (3 knots; 1.5 m/s)
Visibility:6 or more sm (10+ km)
Ceiling:at least 12,000 feet AGL
Clouds: few clouds at 3000 feet AGL
Text:VTBD 182200Z 00000KT 9999 FEW030 28/23 Q1011 NOSIG
Temperature: 28.0°C ( 82°F)
Dewpoint: 23.0°C ( 73°F) [RH = 74%]
Pressure (altimeter):29.85 inches Hg (1011.0 mb)
Winds:calm
Visibility:6 or more sm (10+ km)
Ceiling:at least 12,000 feet AGL
Clouds: few clouds at 3000 feet AGL
Text:VTBD 182130Z VRB02KT 9999 FEW030 27/24 Q1011 NOSIG
Temperature: 27.0°C ( 81°F)
Dewpoint: 24.0°C ( 75°F) [RH = 84%]
Pressure (altimeter):29.85 inches Hg (1011.0 mb)
Winds:variable direction winds at 2 MPH (2 knots; 1.0 m/s)
Visibility:6 or more sm (10+ km)
Ceiling:at least 12,000 feet AGL
Clouds: few clouds at 3000 feet AGL
Text:VTBD 182100Z 36004KT 320V030 9999 FEW030 28/23 Q1011 NOSIG
Temperature: 28.0°C ( 82°F)
Dewpoint: 23.0°C ( 73°F) [RH = 74%]
Pressure (altimeter):29.85 inches Hg (1011.0 mb)
Winds:from the N (360 degrees) at 5 MPH (4 knots; 2.1 m/s)
Visibility:6 or more sm (10+ km)
Ceiling:at least 12,000 feet AGL
Clouds: few clouds at 3000 feet AGL